Time;durP1;ratioP1;P1;durP2;ratioP2;P2;SDS_P1;SDS_P2;PMS_P1;PMS_P2;Temp;Humidity;BMP_temperature;BMP_pressure;BME280_temperature;BME280_humidity;BME280_pressure;Samples;Min_cycle;Max_cycle;Signal;HPM_P1;HPM_P2
2021/07/15 00:00:08;;;;;;;0.80;0.70;;;16.90;91.70;;;;;;4990372;28;20471;-72
2021/07/15 00:02:33;;;;;;;0.70;0.57;;;16.90;91.80;;;;;;4996555;28;20416;-71
2021/07/15 00:04:59;;;;;;;1.63;0.80;;;16.90;91.90;;;;;;4997941;28;20479;-71
2021/07/15 00:07:25;;;;;;;0.80;0.70;;;17.00;91.70;;;;;;4994932;28;20661;-71
2021/07/15 00:09:50;;;;;;;1.83;0.60;;;17.00;91.80;;;;;;4990106;28;20232;-71
2021/07/15 00:12:16;;;;;;;0.90;0.57;;;17.00;91.70;;;;;;4977969;28;20248;-70
2021/07/15 00:14:42;;;;;;;0.80;0.53;;;16.90;91.80;;;;;;4990788;28;20209;-70
2021/07/15 00:17:08;;;;;;;4.33;2.30;;;16.90;92.70;;;;;;4985732;28;20630;-71
2021/07/15 00:19:34;;;;;;;2.37;1.13;;;16.80;93.40;;;;;;4976255;28;20474;-71
2021/07/15 00:22:00;;;;;;;1.33;0.90;;;16.70;94.20;;;;;;4985655;28;20434;-71
2021/07/15 00:24:27;;;;;;;2.03;0.70;;;16.50;94.90;;;;;;4974494;28;20291;-71
2021/07/15 00:26:54;;;;;;;1.30;0.70;;;16.30;95.70;;;;;;4985348;28;20426;-71
2021/07/15 00:29:21;;;;;;;1.10;0.70;;;16.20;96.30;;;;;;4971896;28;20441;-70
2021/07/15 00:31:48;;;;;;;0.80;0.60;;;16.20;96.50;;;;;;4984084;28;20514;-70
2021/07/15 00:34:14;;;;;;;3.80;0.53;;;16.00;97.00;;;;;;4970471;28;20459;-71
2021/07/15 00:36:39;;;;;;;0.80;0.60;;;16.00;97.40;;;;;;4987531;28;20465;-71
2021/07/15 00:39:06;;;;;;;1.33;0.50;;;16.00;97.70;;;;;;4990951;28;20831;-71
2021/07/15 00:41:33;;;;;;;1.00;0.60;;;15.90;97.80;;;;;;4980840;28;20652;-71
2021/07/15 00:43:59;;;;;;;2.10;0.70;;;15.90;97.80;;;;;;4992822;28;20576;-70
2021/07/15 00:46:24;;;;;;;1.20;0.60;;;15.80;97.90;;;;;;4993171;28;20905;-70
2021/07/15 00:48:50;;;;;;;1.53;0.90;;;15.80;97.90;;;;;;4997382;28;20192;-72
2021/07/15 00:51:17;;;;;;;0.80;0.50;;;15.80;97.70;;;;;;4988180;28;20239;-72
2021/07/15 00:53:43;;;;;;;1.17;0.70;;;15.70;97.80;;;;;;4993900;28;20190;-72
2021/07/15 00:56:10;;;;;;;1.00;0.60;;;15.70;97.70;;;;;;4993415;28;20955;-72
2021/07/15 00:58:36;;;;;;;1.80;0.60;;;15.80;97.70;;;;;;4997423;28;20432;-71
2021/07/15 01:01:03;;;;;;;3.50;0.67;;;15.80;97.60;;;;;;4999942;28;20577;-72
2021/07/15 01:03:29;;;;;;;0.83;0.50;;;15.80;97.60;;;;;;4989688;28;20418;-72
2021/07/15 01:05:57;;;;;;;1.40;0.57;;;15.90;97.80;;;;;;4994044;28;20450;-73
2021/07/15 01:08:24;;;;;;;1.90;0.73;;;15.80;97.50;;;;;;4993814;28;20430;-73
2021/07/15 01:11:02;;;;;;;1.37;0.80;;;15.90;97.70;;;;;;4993619;28;20576;-73
2021/07/15 01:13:40;;;;;;;1.37;0.70;;;15.80;97.70;;;;;;4990505;28;20419;-74
2021/07/15 01:16:28;;;;;;;0.87;0.53;;;15.80;97.70;;;;;;4992156;28;20884;-74
2021/07/15 01:19:03;;;;;;;0.90;0.60;;;15.80;97.70;;;;;;4989431;28;20431;-72
2021/07/15 01:22:00;;;;;;;1.10;0.50;;;15.90;97.50;;;;;;4991697;28;20431;-71
2021/07/15 01:24:25;;;;;;;1.33;0.50;;;15.80;97.60;;;;;;4985106;28;20808;-72
2021/07/15 01:27:00;;;;;;;1.43;0.50;;;15.90;97.60;;;;;;4991825;28;20423;-71
2021/07/15 01:29:47;;;;;;;1.30;0.67;;;15.90;97.50;;;;;;4996260;28;20188;-71
2021/07/15 01:32:16;;;;;;;1.20;0.70;;;15.90;97.50;;;;;;4982806;28;20842;-72
2021/07/15 01:34:44;;;;;;;2.40;0.90;;;15.90;97.40;;;;;;4991816;28;20465;-71
2021/07/15 01:37:11;;;;;;;1.70;0.60;;;15.90;97.40;;;;;;4993220;28;20783;-71
2021/07/15 01:39:43;;;;;;;0.80;0.60;;;15.70;97.20;;;;;;4993648;28;20890;-71
2021/07/15 01:42:13;;;;;;;0.90;0.70;;;15.70;97.40;;;;;;4993472;28;20411;-71
2021/07/15 01:44:40;;;;;;;0.67;0.50;;;15.70;97.50;;;;;;4993304;28;20584;-71
2021/07/15 01:47:06;;;;;;;0.70;0.57;;;15.70;97.50;;;;;;4993796;28;20436;-71
2021/07/15 01:49:33;;;;;;;1.17;0.77;;;15.70;97.50;;;;;;4991057;28;20945;-71
2021/07/15 01:52:00;;;;;;;0.80;0.60;;;15.70;97.60;;;;;;4989494;28;20600;-72
2021/07/15 01:54:28;;;;;;;0.80;0.50;;;15.60;97.60;;;;;;4993252;28;20449;-71
2021/07/15 01:56:55;;;;;;;0.93;0.60;;;15.60;97.60;;;;;;4993537;28;20964;-72
2021/07/15 01:59:25;;;;;;;1.87;0.80;;;15.60;97.70;;;;;;4993282;28;20797;-70
2021/07/15 02:01:53;;;;;;;1.13;0.60;;;15.60;97.50;;;;;;4987390;28;20418;-72
2021/07/15 02:04:19;;;;;;;3.30;1.10;;;15.60;97.50;;;;;;4992577;28;20472;-71
2021/07/15 02:06:49;;;;;;;0.90;0.60;;;15.60;97.50;;;;;;4992634;28;20414;-72
2021/07/15 02:09:16;;;;;;;0.70;0.50;;;15.60;97.50;;;;;;4984914;28;20428;-72
2021/07/15 02:11:43;;;;;;;0.90;0.70;;;15.60;97.60;;;;;;4990855;28;20557;-72
2021/07/15 02:14:12;;;;;;;1.27;0.77;;;15.60;97.60;;;;;;4983996;28;20454;-72
2021/07/15 02:16:40;;;;;;;0.60;0.50;;;15.50;97.60;;;;;;4991578;28;20429;-73
2021/07/15 02:19:07;;;;;;;1.47;0.50;;;15.60;97.60;;;;;;4982477;28;20447;-72
2021/07/15 02:21:35;;;;;;;0.80;0.60;;;15.60;97.50;;;;;;4991318;28;20418;-72
2021/07/15 02:24:04;;;;;;;0.80;0.53;;;15.60;97.40;;;;;;4986600;28;20434;-73
2021/07/15 02:26:31;;;;;;;1.30;0.90;;;15.60;97.40;;;;;;4988925;28;20418;-71
2021/07/15 02:28:58;;;;;;;2.00;0.80;;;15.60;97.10;;;;;;4985394;28;20433;-71
2021/07/15 02:31:44;;;;;;;1.43;0.60;;;15.60;97.20;;;;;;4983968;28;20425;-72
2021/07/15 02:34:20;;;;;;;0.70;0.50;;;15.60;97.20;;;;;;4985394;28;20472;-72
2021/07/15 02:36:46;;;;;;;1.00;0.80;;;15.60;97.00;;;;;;4989725;28;20441;-72
2021/07/15 02:39:12;;;;;;;0.73;0.57;;;15.70;96.90;;;;;;4991277;28;20512;-72
2021/07/15 02:41:38;;;;;;;0.70;0.53;;;15.70;96.90;;;;;;4982952;28;20518;-72
2021/07/15 02:44:06;;;;;;;0.90;0.70;;;15.70;96.70;;;;;;4988794;28;20972;-72
2021/07/15 02:46:32;;;;;;;0.80;0.50;;;15.70;96.60;;;;;;4988721;28;20211;-72
2021/07/15 02:48:59;;;;;;;0.60;0.50;;;15.70;96.60;;;;;;4985060;28;20434;-73
2021/07/15 02:51:25;;;;;;;0.60;0.53;;;15.80;96.60;;;;;;4978785;28;20497;-72
2021/07/15 02:53:51;;;;;;;1.17;0.60;;;15.90;96.60;;;;;;4984280;28;20853;-72
2021/07/15 02:56:26;;;;;;;0.80;0.60;;;16.00;96.50;;;;;;4990878;28;20214;-70
2021/07/15 02:59:43;;;;;;;1.93;0.60;;;16.00;96.20;;;;;;4983668;28;20476;-70
2021/07/15 03:02:26;;;;;;;0.70;0.50;;;16.10;95.80;;;;;;4988792;28;20448;-70
2021/07/15 03:05:24;;;;;;;0.90;0.50;;;16.20;95.20;;;;;;4988255;28;20896;-71
2021/07/15 03:07:56;;;;;;;0.60;0.50;;;16.30;94.90;;;;;;4907185;29;20459;-71
2021/07/15 03:10:23;;;;;;;0.63;0.40;;;16.30;94.50;;;;;;4896271;29;20432;-71
2021/07/15 03:12:49;;;;;;;0.53;0.40;;;16.40;94.30;;;;;;4909216;29;20487;-70
2021/07/15 03:15:15;;;;;;;1.30;0.60;;;16.30;94.30;;;;;;4911215;29;20475;-71
2021/07/15 03:17:46;;;;;;;2.70;0.70;;;16.40;94.20;;;;;;4912085;29;20479;-71
2021/07/15 03:20:18;;;;;;;1.10;0.80;;;16.40;94.00;;;;;;4909715;29;20225;-71
2021/07/15 03:22:47;;;;;;;0.70;0.50;;;16.40;93.90;;;;;;4907281;29;20430;-72
2021/07/15 03:25:16;;;;;;;1.10;0.40;;;16.40;94.00;;;;;;4910701;29;20507;-71
2021/07/15 03:27:45;;;;;;;0.60;0.50;;;16.40;94.10;;;;;;4911920;29;20487;-73
2021/07/15 03:30:13;;;;;;;3.40;0.50;;;16.40;94.10;;;;;;4910880;29;20874;-71
2021/07/15 03:32:40;;;;;;;2.00;0.60;;;16.50;94.20;;;;;;4913269;29;20448;-71
2021/07/15 03:35:08;;;;;;;1.17;0.50;;;16.50;94.00;;;;;;4911219;29;20449;-71
2021/07/15 03:37:37;;;;;;;0.60;0.50;;;16.50;94.00;;;;;;4911253;29;20845;-72
2021/07/15 03:40:04;;;;;;;0.60;0.47;;;16.50;94.20;;;;;;4911152;29;20553;-72
2021/07/15 03:42:30;;;;;;;1.20;0.50;;;16.60;93.70;;;;;;4911263;29;20437;-72
2021/07/15 03:44:57;;;;;;;0.80;0.60;;;16.60;93.80;;;;;;4964914;28;20541;-72
2021/07/15 03:47:23;;;;;;;1.33;0.57;;;16.60;94.00;;;;;;4986835;28;20564;-72
2021/07/15 03:49:50;;;;;;;3.70;0.50;;;16.60;94.00;;;;;;4980026;28;20426;-71
2021/07/15 03:52:17;;;;;;;0.83;0.50;;;16.60;94.20;;;;;;4985756;28;20426;-71
2021/07/15 03:54:45;;;;;;;1.80;0.50;;;16.60;94.00;;;;;;4982952;28;20452;-72
2021/07/15 03:57:12;;;;;;;0.80;0.50;;;16.60;94.00;;;;;;4989494;28;20453;-71
2021/07/15 03:59:42;;;;;;;4.20;1.47;;;16.70;93.80;;;;;;4990132;28;20462;-71
2021/07/15 04:02:09;;;;;;;0.87;0.57;;;16.70;93.60;;;;;;4990481;28;20430;-71
2021/07/15 04:04:36;;;;;;;0.60;0.40;;;16.70;93.20;;;;;;4997598;28;20780;-71
2021/07/15 04:07:04;;;;;;;0.93;0.53;;;16.70;93.50;;;;;;4996152;28;20416;-70
2021/07/15 04:09:34;;;;;;;1.77;0.60;;;16.70;93.60;;;;;;4982836;28;20522;-71
2021/07/15 04:12:00;;;;;;;1.97;0.60;;;16.60;93.60;;;;;;4990664;28;20417;-72
2021/07/15 04:14:48;;;;;;;2.57;0.83;;;16.70;93.70;;;;;;4987498;28;20939;-73
2021/07/15 04:17:16;;;;;;;1.80;0.70;;;16.70;93.70;;;;;;4989723;28;20446;-72
2021/07/15 04:19:43;;;;;;;2.20;0.80;;;16.80;93.40;;;;;;4993647;28;20468;-72
2021/07/15 04:22:12;;;;;;;3.43;1.00;;;16.80;93.30;;;;;;4991900;28;20416;-71
2021/07/15 04:24:41;;;;;;;1.73;0.80;;;16.80;93.40;;;;;;4991768;28;20829;-72
2021/07/15 04:27:09;;;;;;;0.80;0.60;;;16.80;93.50;;;;;;4990162;28;20495;-72
2021/07/15 04:29:36;;;;;;;4.43;1.07;;;16.80;93.40;;;;;;4993490;28;20800;-72
2021/07/15 04:32:17;;;;;;;3.77;0.80;;;16.90;93.40;;;;;;4986857;28;20419;-72
2021/07/15 04:34:45;;;;;;;0.80;0.50;;;16.90;93.40;;;;;;4986804;28;20475;-72
2021/07/15 04:37:11;;;;;;;1.70;0.70;;;16.90;93.10;;;;;;4993341;28;20431;-71
2021/07/15 04:39:38;;;;;;;1.50;1.10;;;16.80;93.30;;;;;;4991977;28;20475;-71
2021/07/15 04:42:05;;;;;;;1.10;0.70;;;16.90;93.60;;;;;;4990067;28;20822;-72
2021/07/15 04:44:35;;;;;;;0.90;0.70;;;16.90;93.60;;;;;;4987213;28;21040;-71
2021/07/15 04:47:02;;;;;;;0.70;0.50;;;17.00;93.50;;;;;;4988272;28;20418;-73
2021/07/15 04:49:32;;;;;;;1.40;0.70;;;17.00;93.20;;;;;;4986931;28;20886;-72
2021/07/15 04:51:59;;;;;;;0.70;0.60;;;17.00;93.20;;;;;;4988083;28;20839;-74
2021/07/15 04:54:25;;;;;;;0.80;0.57;;;17.10;92.70;;;;;;4986734;28;20452;-74
2021/07/15 04:56:51;;;;;;;1.40;0.60;;;17.10;92.50;;;;;;4989325;28;20444;-71
2021/07/15 04:59:18;;;;;;;0.80;0.60;;;17.10;92.50;;;;;;4985001;28;20788;-72
2021/07/15 05:01:44;;;;;;;2.10;0.70;;;17.10;92.20;;;;;;4988684;28;20418;-72
2021/07/15 05:04:10;;;;;;;1.57;0.60;;;17.10;92.20;;;;;;4992178;28;20842;-72
2021/07/15 05:06:36;;;;;;;1.40;0.70;;;17.10;92.30;;;;;;4986783;28;20454;-72
2021/07/15 05:09:02;;;;;;;1.80;0.60;;;17.10;92.00;;;;;;4988343;28;20411;-72
2021/07/15 05:11:28;;;;;;;1.07;0.60;;;16.90;92.10;;;;;;4992696;28;20186;-72
2021/07/15 05:13:54;;;;;;;3.53;0.93;;;16.70;92.60;;;;;;4986244;28;20600;-72
2021/07/15 05:16:20;;;;;;;2.37;0.77;;;16.60;93.20;;;;;;4991016;28;20282;-72
2021/07/15 05:18:46;;;;;;;2.80;0.80;;;16.60;93.60;;;;;;4986260;28;20204;-72
2021/07/15 05:21:12;;;;;;;0.80;0.60;;;16.70;93.60;;;;;;4989109;28;20833;-72
2021/07/15 05:23:38;;;;;;;1.93;0.63;;;16.80;93.40;;;;;;4987358;28;21086;-71
2021/07/15 05:26:04;;;;;;;1.30;0.80;;;16.80;92.70;;;;;;4992218;28;20190;-72
2021/07/15 05:28:29;;;;;;;3.93;0.90;;;16.80;92.50;;;;;;4987130;28;20238;-72
2021/07/15 05:30:55;;;;;;;3.80;0.70;;;16.80;92.50;;;;;;4989147;28;20275;-72
2021/07/15 05:33:21;;;;;;;2.20;0.70;;;16.70;92.60;;;;;;4983372;28;20290;-73
2021/07/15 05:35:47;;;;;;;0.97;0.60;;;16.80;92.80;;;;;;4991292;28;20448;-72
2021/07/15 05:38:13;;;;;;;2.10;0.90;;;16.70;92.70;;;;;;4987109;28;20815;-71
2021/07/15 05:40:39;;;;;;;4.60;0.60;;;16.80;92.90;;;;;;4989845;28;20209;-71
2021/07/15 05:43:05;;;;;;;2.07;0.63;;;16.80;92.50;;;;;;4987443;28;20191;-71
2021/07/15 05:45:31;;;;;;;3.50;0.80;;;16.80;92.60;;;;;;4983634;28;20211;-71
2021/07/15 05:47:57;;;;;;;1.10;0.70;;;16.80;92.50;;;;;;4990365;28;20584;-71
2021/07/15 05:50:23;;;;;;;2.40;0.70;;;16.80;92.90;;;;;;4983884;28;20541;-71
2021/07/15 05:52:49;;;;;;;1.17;0.53;;;16.80;93.00;;;;;;4988052;28;20190;-72
2021/07/15 05:55:15;;;;;;;1.73;0.83;;;16.90;92.70;;;;;;4988467;28;20457;-72
2021/07/15 05:57:41;;;;;;;1.20;0.60;;;16.90;91.70;;;;;;4987682;28;20858;-74
2021/07/15 06:00:12;;;;;;;1.33;0.60;;;17.00;92.00;;;;;;4990467;28;20223;-72
2021/07/15 06:02:38;;;;;;;1.57;0.67;;;17.00;91.90;;;;;;4986659;28;20175;-72
2021/07/15 06:05:04;;;;;;;1.93;0.73;;;17.00;91.80;;;;;;4987098;28;20440;-72
2021/07/15 06:07:30;;;;;;;0.70;0.57;;;16.90;92.10;;;;;;4990375;28;20421;-75
2021/07/15 06:09:55;;;;;;;1.80;0.63;;;16.90;92.00;;;;;;4987258;28;20428;-72
2021/07/15 06:12:21;;;;;;;1.13;0.70;;;17.00;91.80;;;;;;4981003;28;20191;-72
2021/07/15 06:14:47;;;;;;;2.37;0.80;;;16.90;92.20;;;;;;4990789;28;20233;-72
2021/07/15 06:17:13;;;;;;;3.13;0.80;;;17.00;92.30;;;;;;4986153;28;20622;-71
2021/07/15 06:19:39;;;;;;;1.60;0.50;;;17.10;91.70;;;;;;4989773;28;20210;-71
2021/07/15 06:22:05;;;;;;;4.13;0.70;;;17.10;91.50;;;;;;4988285;28;20463;-70
2021/07/15 06:24:31;;;;;;;1.93;0.80;;;17.20;91.60;;;;;;4984875;28;20503;-71
2021/07/15 06:26:57;;;;;;;2.03;0.90;;;17.40;91.40;;;;;;4989727;28;20422;-71
2021/07/15 06:29:23;;;;;;;0.80;0.60;;;17.50;90.70;;;;;;4982686;28;20256;-71
2021/07/15 06:31:50;;;;;;;3.43;1.07;;;17.70;90.30;;;;;;4988671;28;20421;-72
2021/07/15 06:34:16;;;;;;;1.30;0.73;;;17.70;90.20;;;;;;4989762;28;20510;-72
2021/07/15 06:36:44;;;;;;;2.10;0.60;;;17.70;90.20;;;;;;4985580;28;20418;-73
2021/07/15 06:39:11;;;;;;;1.00;0.57;;;17.80;89.90;;;;;;4985004;28;20214;-72
2021/07/15 06:41:36;;;;;;;0.80;0.60;;;17.70;89.70;;;;;;4990645;28;20538;-71
2021/07/15 06:44:03;;;;;;;1.23;0.70;;;17.70;90.00;;;;;;4990343;28;20878;-71
2021/07/15 06:46:30;;;;;;;0.73;0.60;;;17.90;90.00;;;;;;4981934;28;20217;-71
2021/07/15 06:48:56;;;;;;;4.17;1.00;;;18.10;88.70;;;;;;4991300;28;20425;-71
2021/07/15 06:51:21;;;;;;;2.30;0.73;;;18.30;88.00;;;;;;4990752;28;20491;-72
2021/07/15 06:53:51;;;;;;;3.70;0.70;;;18.30;87.40;;;;;;4984000;28;20528;-72
2021/07/15 06:56:17;;;;;;;2.20;0.60;;;18.20;87.80;;;;;;4984223;28;20213;-73
2021/07/15 06:58:43;;;;;;;3.23;0.60;;;18.20;87.80;;;;;;4983221;28;20937;-72
2021/07/15 07:01:09;;;;;;;1.00;0.70;;;17.90;88.70;;;;;;4981684;28;20255;-73
2021/07/15 07:03:35;;;;;;;1.43;0.70;;;17.60;89.90;;;;;;4989790;28;20204;-72
2021/07/15 07:06:02;;;;;;;2.17;0.80;;;17.50;90.50;;;;;;4981750;28;20426;-72
2021/07/15 07:08:28;;;;;;;2.10;0.70;;;17.60;90.60;;;;;;4998646;28;20452;-73
2021/07/15 07:10:54;;;;;;;2.23;0.53;;;17.60;90.20;;;;;;5001755;28;20454;-73
2021/07/15 07:13:19;;;;;;;1.43;0.90;;;17.50;90.50;;;;;;4987888;28;20879;-74
2021/07/15 07:15:45;;;;;;;1.17;0.63;;;17.50;90.70;;;;;;4986466;28;20979;-72
2021/07/15 07:18:12;;;;;;;2.07;0.93;;;17.70;90.30;;;;;;4985875;28;20870;-72
2021/07/15 07:20:37;;;;;;;2.20;1.20;;;17.80;90.00;;;;;;4989737;28;20714;-72
2021/07/15 07:23:16;;;;;;;1.47;0.80;;;17.90;89.60;;;;;;4986886;28;20430;-72
2021/07/15 07:25:44;;;;;;;1.10;0.77;;;18.10;89.30;;;;;;4985532;28;20222;-72
2021/07/15 07:28:10;;;;;;;2.03;0.90;;;18.30;87.80;;;;;;4989468;28;20461;-73
2021/07/15 07:30:36;;;;;;;0.90;0.80;;;18.40;87.00;;;;;;4982908;28;20426;-72
2021/07/15 07:33:02;;;;;;;2.00;0.70;;;18.50;86.80;;;;;;4988903;28;20901;-72
2021/07/15 07:35:28;;;;;;;1.83;0.70;;;18.60;86.90;;;;;;4989132;28;20215;-72
2021/07/15 07:37:53;;;;;;;2.63;1.30;;;18.60;87.10;;;;;;4988432;28;20601;-71
2021/07/15 07:40:19;;;;;;;0.90;0.50;;;18.40;87.60;;;;;;4983398;28;20619;-71
2021/07/15 07:42:46;;;;;;;2.20;0.90;;;18.30;87.60;;;;;;4984172;28;20653;-71
2021/07/15 07:45:13;;;;;;;1.03;0.63;;;18.40;87.80;;;;;;4989818;28;20452;-72
2021/07/15 07:47:39;;;;;;;1.70;0.63;;;18.40;86.80;;;;;;4989885;28;20427;-71
2021/07/15 07:50:07;;;;;;;2.93;1.40;;;18.50;86.60;;;;;;4990126;28;20426;-72
2021/07/15 07:52:33;;;;;;;4.80;2.20;;;18.50;86.50;;;;;;4992118;28;20953;-71
2021/07/15 07:54:59;;;;;;;1.63;0.90;;;18.70;86.90;;;;;;4986379;28;20815;-71
2021/07/15 07:57:25;;;;;;;1.23;0.80;;;18.90;85.60;;;;;;4992701;28;20447;-72
2021/07/15 07:59:50;;;;;;;4.43;0.93;;;19.00;84.60;;;;;;4985062;28;20294;-71
2021/07/15 08:02:16;;;;;;;1.43;0.97;;;19.10;84.60;;;;;;4990643;28;20418;-72
2021/07/15 08:04:42;;;;;;;1.87;0.87;;;19.20;84.30;;;;;;4988247;28;20255;-71
2021/07/15 08:07:13;;;;;;;1.67;0.80;;;19.20;83.70;;;;;;4994205;28;20565;-71
2021/07/15 08:09:43;;;;;;;0.90;0.70;;;19.10;83.10;;;;;;4984995;28;20684;-72
2021/07/15 08:12:15;;;;;;;1.43;0.93;;;19.00;82.80;;;;;;4991688;28;20465;-72
2021/07/15 08:14:42;;;;;;;0.93;0.60;;;19.10;83.00;;;;;;4993418;28;20500;-74
2021/07/15 08:17:08;;;;;;;1.10;0.80;;;19.30;82.50;;;;;;4994524;28;21003;-72
2021/07/15 08:19:34;;;;;;;1.33;0.87;;;19.20;82.50;;;;;;4989141;28;20436;-71
2021/07/15 08:22:01;;;;;;;1.13;0.90;;;19.30;82.70;;;;;;5004811;28;20208;-72
2021/07/15 08:24:26;;;;;;;2.50;1.10;;;19.50;82.20;;;;;;4990946;28;20446;-73
2021/07/15 08:26:52;;;;;;;3.90;1.00;;;19.60;81.80;;;;;;4989990;28;20412;-70
2021/07/15 08:29:18;;;;;;;1.80;1.00;;;19.80;80.60;;;;;;4991667;28;20189;-70
2021/07/15 08:31:45;;;;;;;0.90;0.90;;;19.90;80.20;;;;;;4985416;28;20188;-71
2021/07/15 08:34:11;;;;;;;1.60;0.80;;;19.80;80.30;;;;;;4990763;28;20209;-71
2021/07/15 08:36:37;;;;;;;1.87;1.00;;;19.80;80.90;;;;;;4992917;28;20866;-72
2021/07/15 08:39:04;;;;;;;1.70;1.00;;;19.80;80.60;;;;;;4992903;28;20473;-74
2021/07/15 08:41:29;;;;;;;3.03;1.00;;;19.80;80.90;;;;;;4989246;28;20493;-72
2021/07/15 08:43:55;;;;;;;2.70;0.97;;;19.70;81.10;;;;;;4991444;28;20480;-73
2021/07/15 08:46:21;;;;;;;1.97;0.93;;;19.80;80.20;;;;;;4988399;28;20258;-72
2021/07/15 08:48:48;;;;;;;2.23;0.97;;;19.80;79.70;;;;;;4993785;28;20202;-72
2021/07/15 08:51:14;;;;;;;3.47;0.97;;;19.70;80.60;;;;;;4990445;28;20590;-71
2021/07/15 08:53:44;;;;;;;2.80;1.23;;;19.80;80.50;;;;;;4993094;28;20479;-71
2021/07/15 08:58:57;;;;;;;2.63;1.23;;;19.70;80.80;;;;;;4990499;28;20418;-71
2021/07/15 09:01:23;;;;;;;5.30;1.47;;;19.40;81.70;;;;;;4990219;28;20801;-72
2021/07/15 09:03:49;;;;;;;12.90;1.30;;;19.30;82.50;;;;;;4985514;28;20508;-71
2021/07/15 09:06:15;;;;;;;3.33;1.30;;;19.40;82.40;;;;;;4985229;28;20771;-71
2021/07/15 09:08:41;;;;;;;2.80;1.00;;;19.50;82.20;;;;;;4992423;28;20265;-74
2021/07/15 09:11:06;;;;;;;2.87;1.53;;;19.70;81.20;;;;;;4991997;28;20218;-71
2021/07/15 09:13:32;;;;;;;1.30;0.90;;;19.80;81.10;;;;;;4993475;28;20435;-73
2021/07/15 09:15:58;;;;;;;2.60;1.00;;;19.90;81.20;;;;;;4993711;28;20668;-72
2021/07/15 09:18:24;;;;;;;1.80;1.10;;;20.10;81.20;;;;;;4991148;28;20186;-72
2021/07/15 09:20:49;;;;;;;2.60;0.80;;;20.30;79.60;;;;;;4988857;28;20585;-72
2021/07/15 09:23:16;;;;;;;2.30;1.00;;;20.30;79.60;;;;;;4993282;28;20266;-72
2021/07/15 09:25:42;;;;;;;1.37;0.90;;;20.30;79.30;;;;;;4987818;28;20202;-72
2021/07/15 09:28:09;;;;;;;1.40;0.97;;;20.30;79.30;;;;;;4989908;28;20823;-72
2021/07/15 09:30:35;;;;;;;1.87;0.80;;;19.90;80.00;;;;;;4991870;28;20214;-71
2021/07/15 09:33:04;;;;;;;1.00;0.80;;;19.90;80.30;;;;;;4992093;28;20476;-72
2021/07/15 09:35:41;;;;;;;2.60;0.80;;;19.80;80.50;;;;;;4989983;28;20452;-72
2021/07/15 09:38:27;;;;;;;2.20;1.00;;;19.70;81.90;;;;;;4988605;28;20433;-71
2021/07/15 09:40:55;;;;;;;5.37;1.50;;;19.60;83.00;;;;;;4985961;28;20545;-73
2021/07/15 09:43:28;;;;;;;3.00;1.37;;;19.50;84.30;;;;;;4988094;28;20777;-72
2021/07/15 09:45:56;;;;;;;2.20;1.40;;;19.40;85.70;;;;;;4991623;28;20449;-72
2021/07/15 09:48:27;;;;;;;3.17;2.10;;;19.50;86.80;;;;;;4989091;28;20928;-72
2021/07/15 09:51:02;;;;;;;5.47;2.37;;;19.70;86.50;;;;;;4983631;28;20448;-72
2021/07/15 09:53:31;;;;;;;4.33;1.80;;;19.80;87.10;;;;;;4989216;28;20436;-71
2021/07/15 09:56:04;;;;;;;1.90;1.20;;;19.90;86.90;;;;;;4991931;28;20956;-72
2021/07/15 09:58:38;;;;;;;4.33;1.20;;;20.10;86.80;;;;;;4981281;28;20445;-71
2021/07/15 10:01:12;;;;;;;2.33;1.00;;;20.30;86.00;;;;;;4990128;28;20484;-72
2021/07/15 10:03:47;;;;;;;3.63;1.20;;;20.20;83.40;;;;;;4990470;28;21132;-72
2021/07/15 10:06:15;;;;;;;3.17;1.20;;;20.00;83.60;;;;;;4989574;28;20903;-73
2021/07/15 10:08:44;;;;;;;2.30;1.20;;;20.00;84.00;;;;;;4991482;28;20799;-73
2021/07/15 10:11:15;;;;;;;1.83;1.30;;;19.90;85.00;;;;;;4981839;28;20763;-73
2021/07/15 10:13:41;;;;;;;1.53;1.00;;;19.90;87.00;;;;;;4991584;28;21080;-72
2021/07/15 10:16:08;;;;;;;3.03;0.80;;;20.00;85.60;;;;;;4991901;28;20437;-72
2021/07/15 10:18:45;;;;;;;2.50;1.40;;;20.20;85.70;;;;;;4989120;28;20476;-72
2021/07/15 10:21:14;;;;;;;4.70;1.33;;;20.50;85.30;;;;;;4988945;28;20464;-72
2021/07/15 10:23:45;;;;;;;4.67;1.30;;;20.70;84.10;;;;;;4991285;28;20426;-72
2021/07/15 10:26:12;;;;;;;2.07;1.30;;;20.60;82.20;;;;;;4989586;28;20740;-75
2021/07/15 10:28:46;;;;;;;4.87;1.30;;;20.50;83.10;;;;;;4991250;28;20469;-72
2021/07/15 10:31:14;;;;;;;2.23;1.50;;;20.10;83.40;;;;;;4980949;28;20437;-71
2021/07/15 10:33:42;;;;;;;1.70;1.20;;;19.80;85.20;;;;;;4989212;28;20470;-73
2021/07/15 10:36:08;;;;;;;2.53;1.70;;;19.60;86.20;;;;;;4984500;28;20427;-73
2021/07/15 10:38:45;;;;;;;1.50;1.30;;;19.50;87.40;;;;;;4991876;28;20757;-72
2021/07/15 10:41:12;;;;;;;2.30;1.40;;;19.50;87.70;;;;;;4990237;28;20468;-71
2021/07/15 10:43:39;;;;;;;3.50;2.10;;;19.80;87.80;;;;;;4989571;28;20428;-70
2021/07/15 10:46:06;;;;;;;2.30;1.50;;;20.00;87.60;;;;;;4990332;28;20445;-72
2021/07/15 10:48:35;;;;;;;2.30;1.50;;;19.90;86.90;;;;;;4986509;28;20527;-73
2021/07/15 10:51:03;;;;;;;2.67;1.57;;;19.60;89.20;;;;;;4987180;28;20435;-72
2021/07/15 10:53:33;;;;;;;5.40;1.40;;;19.70;89.90;;;;;;4991689;28;20438;-72
2021/07/15 10:56:00;;;;;;;3.50;1.80;;;20.00;88.90;;;;;;4991575;28;20428;-71
2021/07/15 10:58:47;;;;;;;1.80;1.47;;;20.40;88.30;;;;;;4990641;28;20437;-72
2021/07/15 11:01:41;;;;;;;3.90;1.63;;;20.80;86.90;;;;;;4989406;28;20477;-71
2021/07/15 11:04:08;;;;;;;1.47;1.27;;;21.00;83.60;;;;;;4991170;28;20426;-72
2021/07/15 11:06:38;;;;;;;2.03;1.13;;;21.10;81.70;;;;;;4985676;28;20781;-72
2021/07/15 11:09:04;;;;;;;1.43;1.20;;;21.00;81.80;;;;;;4988210;28;20406;-73
2021/07/15 11:11:35;;;;;;;1.83;1.03;;;21.00;81.90;;;;;;4983041;28;20965;-71
2021/07/15 11:14:01;;;;;;;2.70;1.20;;;20.80;80.60;;;;;;4985360;28;20437;-72
2021/07/15 11:16:46;;;;;;;4.43;1.00;;;20.80;81.10;;;;;;4986763;28;20821;-71
2021/07/15 11:19:18;;;;;;;1.20;1.00;;;21.20;81.50;;;;;;4988700;28;20421;-72
2021/07/15 11:21:57;;;;;;;1.30;0.80;;;21.30;79.00;;;;;;4985629;28;21270;-72
2021/07/15 11:24:28;;;;;;;1.30;1.17;;;21.30;80.30;;;;;;4979242;28;20475;-72
2021/07/15 11:26:54;;;;;;;1.60;1.00;;;21.30;78.40;;;;;;4990086;28;20427;-70
2021/07/15 11:29:49;;;;;;;2.00;1.03;;;21.20;75.70;;;;;;4991160;28;20434;-71
2021/07/15 11:32:28;;;;;;;1.20;1.10;;;21.20;78.30;;;;;;4983925;28;20223;-71
2021/07/15 11:34:55;;;;;;;1.17;0.90;;;21.20;77.80;;;;;;4986897;28;20449;-72
2021/07/15 11:37:34;;;;;;;2.43;1.10;;;21.30;78.40;;;;;;4982493;28;20925;-70
2021/07/15 11:40:02;;;;;;;1.67;0.90;;;21.50;76.80;;;;;;4984538;28;20495;-71
2021/07/15 11:42:33;;;;;;;1.20;0.97;;;21.30;74.20;;;;;;4986398;28;20522;-72
2021/07/15 11:45:06;;;;;;;2.23;1.07;;;21.20;75.70;;;;;;4984251;28;20442;-72
2021/07/15 11:47:54;;;;;;;2.63;1.00;;;21.20;75.90;;;;;;4982837;28;20479;-71
2021/07/15 11:50:39;;;;;;;1.70;0.93;;;21.10;76.50;;;;;;4981401;28;20429;-72
2021/07/15 11:53:26;;;;;;;1.00;0.97;;;21.10;77.70;;;;;;4990065;28;20426;-70
2021/07/15 11:55:55;;;;;;;1.53;0.90;;;21.10;77.40;;;;;;4986581;28;20805;-71
2021/07/15 11:58:39;;;;;;;1.20;0.90;;;21.10;78.30;;;;;;4988708;28;20450;-72
2021/07/15 12:01:30;;;;;;;1.30;1.07;;;20.90;78.90;;;;;;4985225;28;20916;-72
2021/07/15 12:04:00;;;;;;;2.90;1.10;;;20.60;81.40;;;;;;4982989;28;20432;-72
2021/07/15 12:06:27;;;;;;;1.70;1.20;;;20.50;81.50;;;;;;4989752;28;20414;-71
2021/07/15 12:08:58;;;;;;;2.57;1.10;;;20.40;81.80;;;;;;4986679;28;20422;-72
2021/07/15 12:11:24;;;;;;;2.30;1.23;;;20.40;80.50;;;;;;4989734;28;20878;-72
2021/07/15 12:13:51;;;;;;;1.33;1.00;;;20.40;80.30;;;;;;4989710;28;20525;-70
2021/07/15 12:16:21;;;;;;;0.90;0.90;;;20.50;80.80;;;;;;4989463;28;20194;-71
2021/07/15 12:18:51;;;;;;;1.10;0.90;;;20.50;81.40;;;;;;4982149;28;20433;-71
2021/07/15 12:21:21;;;;;;;1.23;1.10;;;20.70;80.80;;;;;;4983370;28;20470;-71
2021/07/15 12:23:50;;;;;;;1.10;0.90;;;20.60;79.60;;;;;;4989472;28;20421;-70
2021/07/15 12:26:18;;;;;;;2.10;1.20;;;20.50;79.70;;;;;;4983789;28;20419;-72
2021/07/15 12:28:46;;;;;;;0.97;0.90;;;20.70;79.30;;;;;;4987575;28;20413;-71
2021/07/15 12:31:18;;;;;;;1.50;0.93;;;20.50;78.70;;;;;;4978795;28;20437;-71
2021/07/15 12:33:52;;;;;;;1.53;1.13;;;20.60;79.20;;;;;;4986225;28;20507;-72
2021/07/15 12:36:22;;;;;;;0.97;0.90;;;21.00;78.10;;;;;;4991583;28;20525;-72
2021/07/15 12:38:53;;;;;;;1.63;1.03;;;21.30;77.60;;;;;;4984813;28;20428;-71
2021/07/15 12:41:24;;;;;;;1.73;1.40;;;21.50;76.80;;;;;;4990453;28;20462;-70
2021/07/15 12:43:56;;;;;;;1.63;1.10;;;21.90;74.50;;;;;;4982813;28;20434;-72
2021/07/15 12:46:29;;;;;;;1.27;0.90;;;22.20;73.30;;;;;;4990642;28;20473;-72
2021/07/15 12:49:02;;;;;;;2.23;1.00;;;22.20;71.40;;;;;;4989015;28;20429;-70
2021/07/15 12:51:44;;;;;;;1.40;1.03;;;22.30;71.60;;;;;;4991713;28;20437;-72
2021/07/15 12:54:13;;;;;;;3.23;1.10;;;22.40;72.60;;;;;;4989745;28;20450;-71
2021/07/15 12:56:40;;;;;;;1.87;1.27;;;22.70;72.60;;;;;;4985671;28;20800;-71
2021/07/15 12:59:09;;;;;;;1.30;1.20;;;22.80;70.80;;;;;;4988559;28;20438;-74